sensor_id;sensor_type;location;lat;lon;timestamp;P1;durP1;ratioP1;P2;durP2;ratioP2
72801;SDS011;61891;55.818;37.084;2023-07-30T00:02:21;11.40;;;8.70;;
72801;SDS011;61891;55.818;37.084;2023-07-30T00:04:46;12.57;;;9.18;;
72801;SDS011;61891;55.818;37.084;2023-07-30T00:07:13;10.90;;;8.73;;
72801;SDS011;61891;55.818;37.084;2023-07-30T00:09:40;12.25;;;8.35;;
72801;SDS011;61891;55.818;37.084;2023-07-30T00:12:06;12.05;;;8.05;;
72801;SDS011;61891;55.818;37.084;2023-07-30T00:14:33;10.35;;;7.57;;
72801;SDS011;61891;55.818;37.084;2023-07-30T00:16:59;12.48;;;8.48;;
72801;SDS011;61891;55.818;37.084;2023-07-30T00:21:51;11.65;;;8.35;;
72801;SDS011;61891;55.818;37.084;2023-07-30T00:24:17;13.32;;;8.57;;
72801;SDS011;61891;55.818;37.084;2023-07-30T00:26:43;13.32;;;8.27;;
72801;SDS011;61891;55.818;37.084;2023-07-30T00:29:08;17.15;;;9.75;;
72801;SDS011;61891;55.818;37.084;2023-07-30T00:31:34;12.85;;;9.55;;
72801;SDS011;61891;55.818;37.084;2023-07-30T00:34:00;13.05;;;10.15;;
72801;SDS011;61891;55.818;37.084;2023-07-30T00:36:26;13.68;;;8.70;;
72801;SDS011;61891;55.818;37.084;2023-07-30T00:38:52;13.55;;;10.20;;
72801;SDS011;61891;55.818;37.084;2023-07-30T00:41:18;16.63;;;9.23;;
72801;SDS011;61891;55.818;37.084;2023-07-30T00:43:44;14.07;;;9.30;;
72801;SDS011;61891;55.818;37.084;2023-07-30T00:46:11;12.32;;;8.55;;
72801;SDS011;61891;55.818;37.084;2023-07-30T00:48:38;13.02;;;8.63;;
72801;SDS011;61891;55.818;37.084;2023-07-30T00:51:04;14.40;;;10.63;;
72801;SDS011;61891;55.818;37.084;2023-07-30T00:53:31;11.32;;;8.35;;
72801;SDS011;61891;55.818;37.084;2023-07-30T00:55:57;12.45;;;8.25;;
72801;SDS011;61891;55.818;37.084;2023-07-30T00:58:23;15.63;;;10.32;;
72801;SDS011;61891;55.818;37.084;2023-07-30T01:00:50;14.55;;;10.68;;
72801;SDS011;61891;55.818;37.084;2023-07-30T01:03:18;14.38;;;9.50;;
72801;SDS011;61891;55.818;37.084;2023-07-30T01:05:45;13.50;;;8.73;;
72801;SDS011;61891;55.818;37.084;2023-07-30T01:10:36;16.30;;;9.55;;
72801;SDS011;61891;55.818;37.084;2023-07-30T01:13:04;13.73;;;8.55;;
72801;SDS011;61891;55.818;37.084;2023-07-30T01:15:33;13.00;;;9.38;;
72801;SDS011;61891;55.818;37.084;2023-07-30T01:17:59;13.63;;;9.80;;
72801;SDS011;61891;55.818;37.084;2023-07-30T01:20:29;12.88;;;9.73;;
72801;SDS011;61891;55.818;37.084;2023-07-30T01:22:59;16.90;;;10.18;;
72801;SDS011;61891;55.818;37.084;2023-07-30T01:25:26;15.00;;;10.13;;
72801;SDS011;61891;55.818;37.084;2023-07-30T01:27:57;14.57;;;9.38;;
72801;SDS011;61891;55.818;37.084;2023-07-30T01:30:48;15.15;;;9.30;;
72801;SDS011;61891;55.818;37.084;2023-07-30T01:33:14;12.63;;;9.65;;
72801;SDS011;61891;55.818;37.084;2023-07-30T01:38:07;14.75;;;9.10;;
72801;SDS011;61891;55.818;37.084;2023-07-30T01:40:33;14.25;;;8.90;;
72801;SDS011;61891;55.818;37.084;2023-07-30T01:42:59;13.43;;;9.13;;
72801;SDS011;61891;55.818;37.084;2023-07-30T01:45:25;13.80;;;8.85;;
72801;SDS011;61891;55.818;37.084;2023-07-30T01:47:51;16.88;;;9.68;;
72801;SDS011;61891;55.818;37.084;2023-07-30T01:50:17;15.02;;;9.85;;
72801;SDS011;61891;55.818;37.084;2023-07-30T01:52:43;15.35;;;9.10;;
72801;SDS011;61891;55.818;37.084;2023-07-30T01:55:12;13.00;;;8.90;;
72801;SDS011;61891;55.818;37.084;2023-07-30T01:57:38;11.18;;;7.93;;
72801;SDS011;61891;55.818;37.084;2023-07-30T02:00:04;11.43;;;7.72;;
72801;SDS011;61891;55.818;37.084;2023-07-30T02:02:34;12.60;;;8.00;;
72801;SDS011;61891;55.818;37.084;2023-07-30T02:05:01;12.68;;;8.13;;
72801;SDS011;61891;55.818;37.084;2023-07-30T02:07:29;9.25;;;7.72;;
72801;SDS011;61891;55.818;37.084;2023-07-30T02:09:55;10.05;;;7.28;;
72801;SDS011;61891;55.818;37.084;2023-07-30T02:12:22;10.00;;;6.90;;
72801;SDS011;61891;55.818;37.084;2023-07-30T02:14:48;10.52;;;6.55;;
72801;SDS011;61891;55.818;37.084;2023-07-30T02:19:41;6.82;;;5.45;;
72801;SDS011;61891;55.818;37.084;2023-07-30T02:22:07;7.45;;;5.50;;
72801;SDS011;61891;55.818;37.084;2023-07-30T02:24:33;7.20;;;5.88;;
72801;SDS011;61891;55.818;37.084;2023-07-30T02:26:59;8.75;;;5.53;;
72801;SDS011;61891;55.818;37.084;2023-07-30T02:29:25;7.45;;;5.68;;
72801;SDS011;61891;55.818;37.084;2023-07-30T02:31:51;9.98;;;6.20;;
72801;SDS011;61891;55.818;37.084;2023-07-30T02:34:17;8.50;;;5.93;;
72801;SDS011;61891;55.818;37.084;2023-07-30T02:36:43;13.32;;;7.05;;
72801;SDS011;61891;55.818;37.084;2023-07-30T02:39:12;7.95;;;6.07;;
72801;SDS011;61891;55.818;37.084;2023-07-30T02:41:37;9.65;;;6.32;;
72801;SDS011;61891;55.818;37.084;2023-07-30T02:44:03;8.93;;;6.00;;
72801;SDS011;61891;55.818;37.084;2023-07-30T02:46:29;8.18;;;5.72;;
72801;SDS011;61891;55.818;37.084;2023-07-30T02:48:55;8.23;;;6.07;;
72801;SDS011;61891;55.818;37.084;2023-07-30T02:51:21;9.93;;;6.25;;
72801;SDS011;61891;55.818;37.084;2023-07-30T02:53:46;11.60;;;6.70;;
72801;SDS011;61891;55.818;37.084;2023-07-30T02:56:12;8.10;;;6.35;;
72801;SDS011;61891;55.818;37.084;2023-07-30T02:58:38;8.02;;;5.40;;
72801;SDS011;61891;55.818;37.084;2023-07-30T03:01:07;9.38;;;5.10;;
72801;SDS011;61891;55.818;37.084;2023-07-30T03:03:34;7.10;;;5.10;;
72801;SDS011;61891;55.818;37.084;2023-07-30T03:06:00;7.28;;;5.18;;
72801;SDS011;61891;55.818;37.084;2023-07-30T03:08:27;8.00;;;5.25;;
72801;SDS011;61891;55.818;37.084;2023-07-30T03:10:53;7.10;;;5.25;;
72801;SDS011;61891;55.818;37.084;2023-07-30T03:13:18;7.75;;;5.18;;
72801;SDS011;61891;55.818;37.084;2023-07-30T03:15:44;6.50;;;5.00;;
72801;SDS011;61891;55.818;37.084;2023-07-30T03:18:11;6.70;;;4.82;;
72801;SDS011;61891;55.818;37.084;2023-07-30T03:20:37;6.93;;;5.30;;
72801;SDS011;61891;55.818;37.084;2023-07-30T03:23:03;7.57;;;5.00;;
72801;SDS011;61891;55.818;37.084;2023-07-30T03:25:29;8.18;;;5.22;;
72801;SDS011;61891;55.818;37.084;2023-07-30T03:27:54;7.28;;;4.93;;
72801;SDS011;61891;55.818;37.084;2023-07-30T03:30:20;5.95;;;4.68;;
72801;SDS011;61891;55.818;37.084;2023-07-30T03:32:46;7.78;;;4.72;;
72801;SDS011;61891;55.818;37.084;2023-07-30T03:35:11;6.97;;;4.40;;
72801;SDS011;61891;55.818;37.084;2023-07-30T03:37:37;5.45;;;4.57;;
72801;SDS011;61891;55.818;37.084;2023-07-30T03:40:04;5.95;;;4.45;;
72801;SDS011;61891;55.818;37.084;2023-07-30T03:42:31;6.63;;;4.55;;
72801;SDS011;61891;55.818;37.084;2023-07-30T03:44:56;7.85;;;4.43;;
72801;SDS011;61891;55.818;37.084;2023-07-30T03:47:22;5.65;;;4.57;;
72801;SDS011;61891;55.818;37.084;2023-07-30T03:49:48;5.32;;;4.40;;
72801;SDS011;61891;55.818;37.084;2023-07-30T03:52:14;8.15;;;4.50;;
72801;SDS011;61891;55.818;37.084;2023-07-30T03:54:40;5.90;;;4.35;;
72801;SDS011;61891;55.818;37.084;2023-07-30T03:57:06;7.60;;;3.97;;
72801;SDS011;61891;55.818;37.084;2023-07-30T03:59:32;6.30;;;3.95;;
72801;SDS011;61891;55.818;37.084;2023-07-30T04:01:58;6.65;;;4.45;;
72801;SDS011;61891;55.818;37.084;2023-07-30T04:04:24;6.28;;;4.15;;
72801;SDS011;61891;55.818;37.084;2023-07-30T04:06:50;6.03;;;4.18;;
72801;SDS011;61891;55.818;37.084;2023-07-30T04:09:16;4.78;;;4.13;;
72801;SDS011;61891;55.818;37.084;2023-07-30T04:11:42;4.88;;;3.83;;
72801;SDS011;61891;55.818;37.084;2023-07-30T04:14:09;3.95;;;3.50;;
72801;SDS011;61891;55.818;37.084;2023-07-30T04:16:36;5.15;;;3.58;;
72801;SDS011;61891;55.818;37.084;2023-07-30T04:19:02;5.07;;;3.53;;
72801;SDS011;61891;55.818;37.084;2023-07-30T04:21:29;4.18;;;3.75;;
72801;SDS011;61891;55.818;37.084;2023-07-30T04:26:20;4.35;;;3.65;;
72801;SDS011;61891;55.818;37.084;2023-07-30T04:28:46;4.72;;;3.70;;
72801;SDS011;61891;55.818;37.084;2023-07-30T04:31:12;4.40;;;3.33;;
72801;SDS011;61891;55.818;37.084;2023-07-30T04:33:38;4.78;;;3.40;;
72801;SDS011;61891;55.818;37.084;2023-07-30T04:36:04;5.00;;;3.30;;
72801;SDS011;61891;55.818;37.084;2023-07-30T04:38:30;4.28;;;3.15;;
72801;SDS011;61891;55.818;37.084;2023-07-30T04:40:58;4.90;;;3.33;;
72801;SDS011;61891;55.818;37.084;2023-07-30T04:43:24;4.45;;;2.85;;
72801;SDS011;61891;55.818;37.084;2023-07-30T04:45:55;3.85;;;3.35;;
72801;SDS011;61891;55.818;37.084;2023-07-30T04:48:22;4.20;;;3.25;;
72801;SDS011;61891;55.818;37.084;2023-07-30T04:50:48;3.88;;;3.47;;
72801;SDS011;61891;55.818;37.084;2023-07-30T04:53:13;6.97;;;3.65;;
72801;SDS011;61891;55.818;37.084;2023-07-30T04:55:39;6.05;;;3.95;;
72801;SDS011;61891;55.818;37.084;2023-07-30T04:58:05;3.30;;;2.78;;
72801;SDS011;61891;55.818;37.084;2023-07-30T05:00:31;3.45;;;3.15;;
72801;SDS011;61891;55.818;37.084;2023-07-30T05:02:57;3.80;;;2.83;;
72801;SDS011;61891;55.818;37.084;2023-07-30T05:05:22;4.07;;;2.72;;
72801;SDS011;61891;55.818;37.084;2023-07-30T05:07:48;5.10;;;3.00;;
72801;SDS011;61891;55.818;37.084;2023-07-30T05:10:14;3.63;;;2.92;;
72801;SDS011;61891;55.818;37.084;2023-07-30T05:12:41;5.20;;;2.72;;
72801;SDS011;61891;55.818;37.084;2023-07-30T05:17:33;3.55;;;2.55;;
72801;SDS011;61891;55.818;37.084;2023-07-30T05:19:59;5.05;;;2.92;;
72801;SDS011;61891;55.818;37.084;2023-07-30T05:22:25;4.63;;;2.95;;
72801;SDS011;61891;55.818;37.084;2023-07-30T05:24:51;5.35;;;2.72;;
72801;SDS011;61891;55.818;37.084;2023-07-30T05:27:17;3.65;;;2.72;;
72801;SDS011;61891;55.818;37.084;2023-07-30T05:29:42;2.85;;;2.47;;
72801;SDS011;61891;55.818;37.084;2023-07-30T05:32:08;2.88;;;2.45;;
72801;SDS011;61891;55.818;37.084;2023-07-30T05:34:34;3.97;;;2.80;;
72801;SDS011;61891;55.818;37.084;2023-07-30T05:37:01;3.17;;;2.85;;
72801;SDS011;61891;55.818;37.084;2023-07-30T05:39:27;3.08;;;2.65;;
72801;SDS011;61891;55.818;37.084;2023-07-30T05:41:52;2.67;;;2.30;;
72801;SDS011;61891;55.818;37.084;2023-07-30T05:44:18;3.55;;;2.47;;
72801;SDS011;61891;55.818;37.084;2023-07-30T05:46:44;3.78;;;2.78;;
72801;SDS011;61891;55.818;37.084;2023-07-30T05:49:10;4.25;;;2.88;;
72801;SDS011;61891;55.818;37.084;2023-07-30T05:51:36;5.13;;;2.65;;
72801;SDS011;61891;55.818;37.084;2023-07-30T05:56:28;3.38;;;2.72;;
72801;SDS011;61891;55.818;37.084;2023-07-30T05:58:53;3.60;;;2.67;;
72801;SDS011;61891;55.818;37.084;2023-07-30T06:01:19;3.30;;;3.00;;
72801;SDS011;61891;55.818;37.084;2023-07-30T06:03:45;4.07;;;2.58;;
72801;SDS011;61891;55.818;37.084;2023-07-30T06:06:11;2.78;;;2.30;;
72801;SDS011;61891;55.818;37.084;2023-07-30T06:08:37;3.50;;;2.38;;
72801;SDS011;61891;55.818;37.084;2023-07-30T06:11:02;3.20;;;2.65;;
72801;SDS011;61891;55.818;37.084;2023-07-30T06:13:29;3.03;;;2.22;;
72801;SDS011;61891;55.818;37.084;2023-07-30T06:15:55;4.10;;;2.42;;
72801;SDS011;61891;55.818;37.084;2023-07-30T06:18:21;3.50;;;2.50;;
72801;SDS011;61891;55.818;37.084;2023-07-30T06:23:12;3.03;;;2.53;;
72801;SDS011;61891;55.818;37.084;2023-07-30T06:25:38;3.25;;;2.33;;
72801;SDS011;61891;55.818;37.084;2023-07-30T06:30:30;2.38;;;2.17;;
72801;SDS011;61891;55.818;37.084;2023-07-30T06:32:57;4.28;;;2.47;;
72801;SDS011;61891;55.818;37.084;2023-07-30T06:35:23;3.42;;;2.08;;
72801;SDS011;61891;55.818;37.084;2023-07-30T06:40:15;3.78;;;2.53;;
72801;SDS011;61891;55.818;37.084;2023-07-30T06:42:41;3.50;;;2.33;;
72801;SDS011;61891;55.818;37.084;2023-07-30T06:47:33;2.40;;;2.15;;
72801;SDS011;61891;55.818;37.084;2023-07-30T06:52:24;4.38;;;2.33;;
72801;SDS011;61891;55.818;37.084;2023-07-30T06:57:16;2.53;;;2.20;;
72801;SDS011;61891;55.818;37.084;2023-07-30T06:59:41;4.70;;;2.35;;
72801;SDS011;61891;55.818;37.084;2023-07-30T07:02:07;3.75;;;2.22;;
72801;SDS011;61891;55.818;37.084;2023-07-30T07:04:33;2.92;;;2.00;;
72801;SDS011;61891;55.818;37.084;2023-07-30T07:06:59;2.78;;;2.22;;
72801;SDS011;61891;55.818;37.084;2023-07-30T07:09:28;4.55;;;2.25;;
72801;SDS011;61891;55.818;37.084;2023-07-30T07:11:54;5.22;;;2.35;;
72801;SDS011;61891;55.818;37.084;2023-07-30T07:16:46;2.83;;;2.10;;
72801;SDS011;61891;55.818;37.084;2023-07-30T07:19:14;2.63;;;2.00;;
72801;SDS011;61891;55.818;37.084;2023-07-30T07:24:05;2.75;;;2.00;;
72801;SDS011;61891;55.818;37.084;2023-07-30T07:28:56;3.60;;;2.30;;
72801;SDS011;61891;55.818;37.084;2023-07-30T07:33:48;3.97;;;1.77;;
72801;SDS011;61891;55.818;37.084;2023-07-30T07:38:39;3.53;;;2.20;;
72801;SDS011;61891;55.818;37.084;2023-07-30T07:43:31;4.07;;;1.95;;
72801;SDS011;61891;55.818;37.084;2023-07-30T07:45:57;2.80;;;1.70;;
72801;SDS011;61891;55.818;37.084;2023-07-30T07:50:48;2.58;;;2.00;;
72801;SDS011;61891;55.818;37.084;2023-07-30T07:55:39;2.60;;;1.92;;
72801;SDS011;61891;55.818;37.084;2023-07-30T08:00:31;2.05;;;1.85;;
72801;SDS011;61891;55.818;37.084;2023-07-30T08:05:22;2.15;;;1.83;;
72801;SDS011;61891;55.818;37.084;2023-07-30T08:07:49;3.03;;;2.20;;
72801;SDS011;61891;55.818;37.084;2023-07-30T08:10:16;3.50;;;2.10;;
72801;SDS011;61891;55.818;37.084;2023-07-30T08:15:07;2.10;;;1.88;;
72801;SDS011;61891;55.818;37.084;2023-07-30T08:17:33;2.83;;;2.20;;
72801;SDS011;61891;55.818;37.084;2023-07-30T08:19:59;3.88;;;2.08;;
72801;SDS011;61891;55.818;37.084;2023-07-30T08:24:53;4.25;;;2.13;;
72801;SDS011;61891;55.818;37.084;2023-07-30T08:27:19;2.40;;;1.80;;
72801;SDS011;61891;55.818;37.084;2023-07-30T08:29:44;2.28;;;1.60;;
72801;SDS011;61891;55.818;37.084;2023-07-30T08:32:10;2.55;;;1.83;;
72801;SDS011;61891;55.818;37.084;2023-07-30T08:34:36;3.80;;;2.13;;
72801;SDS011;61891;55.818;37.084;2023-07-30T08:37:02;2.63;;;1.80;;
72801;SDS011;61891;55.818;37.084;2023-07-30T08:39:28;2.63;;;1.58;;
72801;SDS011;61891;55.818;37.084;2023-07-30T08:41:53;1.88;;;1.60;;
72801;SDS011;61891;55.818;37.084;2023-07-30T08:44:19;2.67;;;1.80;;
72801;SDS011;61891;55.818;37.084;2023-07-30T08:46:45;1.60;;;1.50;;
72801;SDS011;61891;55.818;37.084;2023-07-30T08:49:11;2.58;;;2.03;;
72801;SDS011;61891;55.818;37.084;2023-07-30T08:51:36;2.60;;;1.90;;
72801;SDS011;61891;55.818;37.084;2023-07-30T08:54:03;2.47;;;1.75;;
72801;SDS011;61891;55.818;37.084;2023-07-30T08:56:30;3.10;;;1.60;;
72801;SDS011;61891;55.818;37.084;2023-07-30T08:58:56;1.90;;;1.70;;
72801;SDS011;61891;55.818;37.084;2023-07-30T09:01:26;1.60;;;1.50;;
72801;SDS011;61891;55.818;37.084;2023-07-30T09:04:02;1.83;;;1.58;;
72801;SDS011;61891;55.818;37.084;2023-07-30T09:06:28;3.40;;;2.00;;
72801;SDS011;61891;55.818;37.084;2023-07-30T09:08:54;4.22;;;1.80;;
72801;SDS011;61891;55.818;37.084;2023-07-30T09:11:20;2.03;;;1.58;;
72801;SDS011;61891;55.818;37.084;2023-07-30T09:13:50;3.22;;;1.70;;
72801;SDS011;61891;55.818;37.084;2023-07-30T09:16:19;4.00;;;1.95;;
72801;SDS011;61891;55.818;37.084;2023-07-30T09:18:45;4.50;;;2.00;;
72801;SDS011;61891;55.818;37.084;2023-07-30T09:21:11;2.40;;;1.75;;
72801;SDS011;61891;55.818;37.084;2023-07-30T09:23:45;3.00;;;1.80;;
72801;SDS011;61891;55.818;37.084;2023-07-30T09:26:12;5.38;;;2.58;;
72801;SDS011;61891;55.818;37.084;2023-07-30T09:28:42;7.15;;;4.85;;
72801;SDS011;61891;55.818;37.084;2023-07-30T09:31:08;2.97;;;1.95;;
72801;SDS011;61891;55.818;37.084;2023-07-30T09:33:34;7.50;;;1.90;;
72801;SDS011;61891;55.818;37.084;2023-07-30T09:36:03;2.15;;;1.58;;
72801;SDS011;61891;55.818;37.084;2023-07-30T09:38:32;3.90;;;1.80;;
72801;SDS011;61891;55.818;37.084;2023-07-30T09:41:07;2.40;;;1.90;;
72801;SDS011;61891;55.818;37.084;2023-07-30T09:43:33;3.17;;;1.88;;
72801;SDS011;61891;55.818;37.084;2023-07-30T09:46:01;4.22;;;1.73;;
72801;SDS011;61891;55.818;37.084;2023-07-30T09:48:29;4.28;;;2.25;;
72801;SDS011;61891;55.818;37.084;2023-07-30T09:50:59;6.88;;;3.47;;
72801;SDS011;61891;55.818;37.084;2023-07-30T09:53:33;4.65;;;2.00;;
72801;SDS011;61891;55.818;37.084;2023-07-30T09:56:02;2.28;;;1.98;;
72801;SDS011;61891;55.818;37.084;2023-07-30T09:58:29;2.40;;;1.60;;
72801;SDS011;61891;55.818;37.084;2023-07-30T10:00:59;6.00;;;1.80;;
72801;SDS011;61891;55.818;37.084;2023-07-30T10:03:27;3.30;;;1.65;;
72801;SDS011;61891;55.818;37.084;2023-07-30T10:05:59;4.25;;;1.92;;
72801;SDS011;61891;55.818;37.084;2023-07-30T10:08:29;2.25;;;1.67;;
72801;SDS011;61891;55.818;37.084;2023-07-30T10:10:59;2.70;;;1.60;;
72801;SDS011;61891;55.818;37.084;2023-07-30T10:13:28;5.55;;;1.80;;
72801;SDS011;61891;55.818;37.084;2023-07-30T10:15:55;2.92;;;1.77;;
72801;SDS011;61891;55.818;37.084;2023-07-30T10:18:25;3.20;;;1.30;;
72801;SDS011;61891;55.818;37.084;2023-07-30T10:20:59;2.42;;;1.52;;
72801;SDS011;61891;55.818;37.084;2023-07-30T10:23:29;3.05;;;1.80;;
72801;SDS011;61891;55.818;37.084;2023-07-30T10:25:58;2.65;;;1.70;;
72801;SDS011;61891;55.818;37.084;2023-07-30T10:30:58;2.45;;;1.60;;
72801;SDS011;61891;55.818;37.084;2023-07-30T10:36:31;1.75;;;1.58;;
72801;SDS011;61891;55.818;37.084;2023-07-30T10:39:10;2.55;;;2.00;;
72801;SDS011;61891;55.818;37.084;2023-07-30T10:41:46;2.20;;;2.00;;
72801;SDS011;61891;55.818;37.084;2023-07-30T10:44:34;2.80;;;1.73;;
72801;SDS011;61891;55.818;37.084;2023-07-30T10:47:01;1.85;;;1.65;;
72801;SDS011;61891;55.818;37.084;2023-07-30T10:49:28;3.83;;;1.77;;
72801;SDS011;61891;55.818;37.084;2023-07-30T10:51:55;2.63;;;1.60;;
72801;SDS011;61891;55.818;37.084;2023-07-30T10:54:25;2.35;;;1.80;;
72801;SDS011;61891;55.818;37.084;2023-07-30T10:56:51;4.55;;;1.95;;
72801;SDS011;61891;55.818;37.084;2023-07-30T10:59:17;7.88;;;2.28;;
72801;SDS011;61891;55.818;37.084;2023-07-30T11:01:45;2.40;;;1.75;;
72801;SDS011;61891;55.818;37.084;2023-07-30T11:04:16;2.63;;;1.65;;
72801;SDS011;61891;55.818;37.084;2023-07-30T11:06:49;3.17;;;1.95;;
72801;SDS011;61891;55.818;37.084;2023-07-30T11:09:23;1.67;;;1.58;;
72801;SDS011;61891;55.818;37.084;2023-07-30T11:11:50;2.55;;;1.90;;
72801;SDS011;61891;55.818;37.084;2023-07-30T11:14:19;2.83;;;1.60;;
72801;SDS011;61891;55.818;37.084;2023-07-30T11:19:14;2.13;;;1.92;;
72801;SDS011;61891;55.818;37.084;2023-07-30T11:21:46;2.75;;;2.05;;
72801;SDS011;61891;55.818;37.084;2023-07-30T11:24:16;4.18;;;2.15;;
72801;SDS011;61891;55.818;37.084;2023-07-30T11:26:42;2.42;;;1.83;;
72801;SDS011;61891;55.818;37.084;2023-07-30T11:29:15;4.32;;;1.63;;
72801;SDS011;61891;55.818;37.084;2023-07-30T11:31:42;1.95;;;1.73;;
72801;SDS011;61891;55.818;37.084;2023-07-30T11:34:09;4.95;;;1.70;;
72801;SDS011;61891;55.818;37.084;2023-07-30T11:36:35;2.35;;;1.70;;
72801;SDS011;61891;55.818;37.084;2023-07-30T11:39:01;1.70;;;1.60;;
72801;SDS011;61891;55.818;37.084;2023-07-30T11:41:27;6.65;;;2.72;;
72801;SDS011;61891;55.818;37.084;2023-07-30T11:43:54;1.90;;;1.60;;
72801;SDS011;61891;55.818;37.084;2023-07-30T11:46:20;3.58;;;1.50;;
72801;SDS011;61891;55.818;37.084;2023-07-30T11:48:52;4.20;;;2.03;;
72801;SDS011;61891;55.818;37.084;2023-07-30T11:51:35;4.47;;;3.85;;
72801;SDS011;61891;55.818;37.084;2023-07-30T11:54:01;4.80;;;2.40;;
72801;SDS011;61891;55.818;37.084;2023-07-30T11:56:31;4.72;;;2.78;;
72801;SDS011;61891;55.818;37.084;2023-07-30T11:59:00;3.83;;;3.42;;
72801;SDS011;61891;55.818;37.084;2023-07-30T12:01:29;4.68;;;2.47;;
72801;SDS011;61891;55.818;37.084;2023-07-30T12:03:57;6.70;;;2.42;;
72801;SDS011;61891;55.818;37.084;2023-07-30T12:06:41;1.90;;;1.67;;
72801;SDS011;61891;55.818;37.084;2023-07-30T12:09:11;4.53;;;2.53;;
72801;SDS011;61891;55.818;37.084;2023-07-30T12:11:52;2.30;;;1.90;;
72801;SDS011;61891;55.818;37.084;2023-07-30T12:16:55;2.53;;;1.90;;
72801;SDS011;61891;55.818;37.084;2023-07-30T12:19:27;2.03;;;1.77;;
72801;SDS011;61891;55.818;37.084;2023-07-30T12:21:53;2.67;;;2.05;;
72801;SDS011;61891;55.818;37.084;2023-07-30T12:24:19;2.13;;;1.70;;
72801;SDS011;61891;55.818;37.084;2023-07-30T12:26:44;2.03;;;1.77;;
72801;SDS011;61891;55.818;37.084;2023-07-30T12:29:10;1.45;;;1.20;;
72801;SDS011;61891;55.818;37.084;2023-07-30T12:31:36;2.22;;;1.48;;
72801;SDS011;61891;55.818;37.084;2023-07-30T12:34:02;2.33;;;1.70;;
72801;SDS011;61891;55.818;37.084;2023-07-30T12:36:28;2.20;;;1.85;;
72801;SDS011;61891;55.818;37.084;2023-07-30T12:38:54;3.08;;;1.95;;
72801;SDS011;61891;55.818;37.084;2023-07-30T12:41:20;3.08;;;2.05;;
72801;SDS011;61891;55.818;37.084;2023-07-30T12:46:18;4.78;;;2.28;;
72801;SDS011;61891;55.818;37.084;2023-07-30T12:48:44;2.28;;;2.08;;
72801;SDS011;61891;55.818;37.084;2023-07-30T12:51:10;1.92;;;1.83;;
72801;SDS011;61891;55.818;37.084;2023-07-30T12:53:36;1.98;;;1.73;;
72801;SDS011;61891;55.818;37.084;2023-07-30T12:56:02;2.35;;;2.15;;
72801;SDS011;61891;55.818;37.084;2023-07-30T12:58:28;2.03;;;1.60;;
72801;SDS011;61891;55.818;37.084;2023-07-30T13:00:54;4.05;;;2.10;;
72801;SDS011;61891;55.818;37.084;2023-07-30T13:03:19;2.42;;;2.20;;
72801;SDS011;61891;55.818;37.084;2023-07-30T13:05:45;3.72;;;2.58;;
72801;SDS011;61891;55.818;37.084;2023-07-30T13:08:11;2.95;;;1.75;;
72801;SDS011;61891;55.818;37.084;2023-07-30T13:10:37;3.60;;;1.80;;
72801;SDS011;61891;55.818;37.084;2023-07-30T13:13:03;2.42;;;2.13;;
72801;SDS011;61891;55.818;37.084;2023-07-30T13:15:28;2.22;;;1.85;;
72801;SDS011;61891;55.818;37.084;2023-07-30T13:17:54;3.63;;;1.80;;
72801;SDS011;61891;55.818;37.084;2023-07-30T13:20:20;3.13;;;1.58;;
72801;SDS011;61891;55.818;37.084;2023-07-30T13:22:46;2.38;;;1.70;;
72801;SDS011;61891;55.818;37.084;2023-07-30T13:25:12;2.50;;;1.77;;
72801;SDS011;61891;55.818;37.084;2023-07-30T13:27:38;3.42;;;1.73;;
72801;SDS011;61891;55.818;37.084;2023-07-30T13:30:04;1.83;;;1.38;;
72801;SDS011;61891;55.818;37.084;2023-07-30T13:32:31;2.33;;;2.03;;
72801;SDS011;61891;55.818;37.084;2023-07-30T13:34:57;5.20;;;1.90;;
72801;SDS011;61891;55.818;37.084;2023-07-30T13:37:22;1.92;;;1.40;;
72801;SDS011;61891;55.818;37.084;2023-07-30T13:39:48;3.08;;;1.42;;
72801;SDS011;61891;55.818;37.084;2023-07-30T13:42:14;1.73;;;1.30;;
72801;SDS011;61891;55.818;37.084;2023-07-30T13:44:40;2.33;;;1.75;;
72801;SDS011;61891;55.818;37.084;2023-07-30T13:47:05;2.17;;;1.60;;
72801;SDS011;61891;55.818;37.084;2023-07-30T13:49:31;2.22;;;2.05;;
72801;SDS011;61891;55.818;37.084;2023-07-30T13:51:57;1.88;;;1.67;;
72801;SDS011;61891;55.818;37.084;2023-07-30T13:54:23;3.75;;;1.67;;
72801;SDS011;61891;55.818;37.084;2023-07-30T13:56:49;1.50;;;1.40;;
72801;SDS011;61891;55.818;37.084;2023-07-30T13:59:14;4.28;;;1.85;;
72801;SDS011;61891;55.818;37.084;2023-07-30T14:01:40;5.70;;;2.03;;
72801;SDS011;61891;55.818;37.084;2023-07-30T14:04:06;1.85;;;1.48;;
72801;SDS011;61891;55.818;37.084;2023-07-30T14:06:32;1.83;;;1.73;;
72801;SDS011;61891;55.818;37.084;2023-07-30T14:08:57;2.22;;;1.92;;
72801;SDS011;61891;55.818;37.084;2023-07-30T14:11:26;5.45;;;1.92;;
72801;SDS011;61891;55.818;37.084;2023-07-30T14:13:53;5.13;;;1.75;;
72801;SDS011;61891;55.818;37.084;2023-07-30T14:16:19;8.50;;;2.53;;
72801;SDS011;61891;55.818;37.084;2023-07-30T14:18:45;1.95;;;1.55;;
72801;SDS011;61891;55.818;37.084;2023-07-30T14:21:11;5.15;;;1.73;;
72801;SDS011;61891;55.818;37.084;2023-07-30T14:23:37;6.65;;;1.77;;
72801;SDS011;61891;55.818;37.084;2023-07-30T14:26:03;2.60;;;1.45;;
72801;SDS011;61891;55.818;37.084;2023-07-30T14:28:29;2.55;;;1.95;;
72801;SDS011;61891;55.818;37.084;2023-07-30T14:30:55;1.70;;;1.60;;
72801;SDS011;61891;55.818;37.084;2023-07-30T14:33:21;2.55;;;1.92;;
72801;SDS011;61891;55.818;37.084;2023-07-30T14:35:47;3.13;;;1.55;;
72801;SDS011;61891;55.818;37.084;2023-07-30T14:38:13;1.83;;;1.63;;
72801;SDS011;61891;55.818;37.084;2023-07-30T14:40:38;1.85;;;1.55;;
72801;SDS011;61891;55.818;37.084;2023-07-30T14:43:04;2.25;;;1.65;;
72801;SDS011;61891;55.818;37.084;2023-07-30T14:45:30;1.60;;;1.50;;
72801;SDS011;61891;55.818;37.084;2023-07-30T14:47:56;1.70;;;1.60;;
72801;SDS011;61891;55.818;37.084;2023-07-30T14:50:22;1.55;;;1.45;;
72801;SDS011;61891;55.818;37.084;2023-07-30T14:52:48;2.45;;;1.65;;
72801;SDS011;61891;55.818;37.084;2023-07-30T14:55:14;1.88;;;1.77;;
72801;SDS011;61891;55.818;37.084;2023-07-30T14:57:40;1.50;;;1.40;;
72801;SDS011;61891;55.818;37.084;2023-07-30T15:00:06;2.92;;;1.27;;
72801;SDS011;61891;55.818;37.084;2023-07-30T15:02:39;1.67;;;1.20;;
72801;SDS011;61891;55.818;37.084;2023-07-30T15:05:09;1.52;;;1.10;;
72801;SDS011;61891;55.818;37.084;2023-07-30T15:07:34;1.75;;;1.30;;
72801;SDS011;61891;55.818;37.084;2023-07-30T15:10:00;2.25;;;1.10;;
72801;SDS011;61891;55.818;37.084;2023-07-30T15:12:26;2.42;;;1.67;;
72801;SDS011;61891;55.818;37.084;2023-07-30T15:14:52;1.42;;;1.33;;
72801;SDS011;61891;55.818;37.084;2023-07-30T15:17:17;3.42;;;1.50;;
72801;SDS011;61891;55.818;37.084;2023-07-30T15:19:43;4.00;;;2.85;;
72801;SDS011;61891;55.818;37.084;2023-07-30T15:22:12;3.53;;;2.65;;
72801;SDS011;61891;55.818;37.084;2023-07-30T15:24:38;2.50;;;2.17;;
72801;SDS011;61891;55.818;37.084;2023-07-30T15:27:04;7.07;;;4.53;;
72801;SDS011;61891;55.818;37.084;2023-07-30T15:29:30;8.75;;;5.25;;
72801;SDS011;61891;55.818;37.084;2023-07-30T15:31:56;4.50;;;2.38;;
72801;SDS011;61891;55.818;37.084;2023-07-30T15:34:25;3.03;;;2.22;;
72801;SDS011;61891;55.818;37.084;2023-07-30T15:36:54;4.28;;;2.35;;
72801;SDS011;61891;55.818;37.084;2023-07-30T15:39:22;9.15;;;5.32;;
72801;SDS011;61891;55.818;37.084;2023-07-30T15:41:48;7.43;;;3.88;;
72801;SDS011;61891;55.818;37.084;2023-07-30T15:44:16;3.78;;;1.83;;
72801;SDS011;61891;55.818;37.084;2023-07-30T15:46:46;6.45;;;3.28;;